createdAt,value
2019-01-28T00:01:16.648Z,99.90
2019-01-28T00:03:47.183Z,99.90
2019-01-28T00:06:18.427Z,99.90
2019-01-28T00:08:48.240Z,99.90
2019-01-28T00:11:18.396Z,99.90
2019-01-28T00:13:48.601Z,99.90
2019-01-28T00:16:18.848Z,99.90
2019-01-28T00:18:49.028Z,99.90
2019-01-28T00:21:19.089Z,99.90
2019-01-28T00:23:49.060Z,99.90
2019-01-28T00:28:48.104Z,99.90
2019-01-28T00:31:17.979Z,99.90
2019-01-28T00:33:48.240Z,99.90
2019-01-28T00:36:18.423Z,99.90
2019-01-28T00:38:48.603Z,99.90
2019-01-28T00:41:18.863Z,99.90
2019-01-28T00:43:49.127Z,99.90
2019-01-28T00:46:19.717Z,99.90
2019-01-28T00:48:50.299Z,99.90
2019-01-28T00:51:20.686Z,99.90
2019-01-28T00:53:50.846Z,99.90
2019-01-28T00:56:20.924Z,99.90
2019-01-28T00:58:51.008Z,99.90
2019-01-28T01:01:21.164Z,99.90
2019-01-28T01:03:51.301Z,99.90
2019-01-28T01:06:21.380Z,99.90
2019-01-28T01:08:51.560Z,99.90
2019-01-28T01:11:21.620Z,99.90
2019-01-28T01:13:51.573Z,99.90
2019-01-28T01:16:21.561Z,99.90
2019-01-28T01:18:51.574Z,99.90
2019-01-28T01:21:21.480Z,99.90
2019-01-28T01:23:51.636Z,99.90
2019-01-28T01:26:21.605Z,99.90
2019-01-28T01:28:52.346Z,99.90
2019-01-28T01:31:23.301Z,99.90
2019-01-28T01:33:53.443Z,99.90
2019-01-28T01:36:23.642Z,99.90
2019-01-28T01:38:53.583Z,99.90
2019-01-28T01:41:23.667Z,99.90
2019-01-28T01:43:53.620Z,99.90
2019-01-28T01:46:25.247Z,99.90
2019-01-28T01:48:57.105Z,99.90
2019-01-28T01:51:27.121Z,99.90
2019-01-28T01:53:57.641Z,99.90
2019-01-28T01:56:27.656Z,99.90
2019-01-28T01:58:57.460Z,99.90
2019-01-28T02:01:27.427Z,99.90
2019-01-28T02:03:57.384Z,99.90
2019-01-28T02:06:27.351Z,99.90
2019-01-28T02:08:57.440Z,99.90
2019-01-28T02:11:27.687Z,99.90
2019-01-28T02:13:57.670Z,99.90
2019-01-28T02:16:27.616Z,99.90
2019-01-28T02:18:59.446Z,99.90
2019-01-28T02:21:29.377Z,99.90
2019-01-28T02:23:59.531Z,99.90
2019-01-28T02:26:29.681Z,99.90
2019-01-28T02:29:01.870Z,99.90
2019-01-28T02:31:32.035Z,99.90
2019-01-28T02:34:02.200Z,99.90
2019-01-28T02:36:32.270Z,99.90
2019-01-28T02:39:02.352Z,99.90
2019-01-28T02:41:32.291Z,99.90
2019-01-28T02:44:02.046Z,99.90
2019-01-28T02:46:32.133Z,99.90
2019-01-28T02:49:02.094Z,99.90
2019-01-28T02:51:32.057Z,99.90
2019-01-28T02:54:02.134Z,99.90
2019-01-28T02:56:31.988Z,99.90
2019-01-28T02:59:01.872Z,99.90
2019-01-28T03:01:32.697Z,99.90
2019-01-28T03:04:02.700Z,99.90
2019-01-28T03:06:32.769Z,99.90
2019-01-28T03:09:03.165Z,99.90
2019-01-28T03:11:33.197Z,99.90
2019-01-28T03:14:03.284Z,99.90
2019-01-28T03:16:34.835Z,99.90
2019-01-28T03:19:05.066Z,99.90
2019-01-28T03:21:35.226Z,99.90
2019-01-28T03:24:05.206Z,99.90
2019-01-28T03:26:35.226Z,99.90
2019-01-28T03:29:05.293Z,99.90
2019-01-28T03:31:35.240Z,99.90
2019-01-28T03:34:05.505Z,99.90
2019-01-28T03:36:35.476Z,99.90
2019-01-28T03:39:07.924Z,99.90
2019-01-28T03:41:38.292Z,99.90
2019-01-28T03:44:08.896Z,99.90
2019-01-28T03:46:39.033Z,99.90
2019-01-28T03:49:09.089Z,99.90
2019-01-28T03:51:39.165Z,99.90
2019-01-28T03:54:10.151Z,99.90
2019-01-28T03:56:43.860Z,99.90
2019-01-28T03:59:13.997Z,99.90
2019-01-28T04:01:44.052Z,99.90
2019-01-28T04:04:14.002Z,99.90
2019-01-28T04:06:44.164Z,99.90
2019-01-28T04:09:14.129Z,99.90
2019-01-28T04:11:44.090Z,99.90
2019-01-28T04:14:14.254Z,99.90
2019-01-28T04:16:44.333Z,99.90
2019-01-28T04:19:14.280Z,99.90
2019-01-28T04:21:44.152Z,99.90
2019-01-28T04:24:14.212Z,99.90
2019-01-28T04:26:44.200Z,99.90
2019-01-28T04:29:14.151Z,99.90
2019-01-28T04:31:44.228Z,99.90
2019-01-28T04:34:14.180Z,99.90
2019-01-28T04:36:44.070Z,99.90
2019-01-28T04:39:14.012Z,99.90
2019-01-28T04:41:44.100Z,99.90
2019-01-28T04:44:14.220Z,99.90
2019-01-28T04:46:44.320Z,99.90
2019-01-28T04:49:14.380Z,99.90
2019-01-28T04:51:44.360Z,99.90
2019-01-28T04:54:14.420Z,99.90
2019-01-28T04:56:44.080Z,99.90
2019-01-28T04:59:14.144Z,99.90
2019-01-28T05:01:44.014Z,99.90
2019-01-28T05:04:14.110Z,99.90
2019-01-28T05:06:44.086Z,99.90
2019-01-28T05:09:14.074Z,99.90
2019-01-28T05:11:44.225Z,99.90
2019-01-28T05:14:14.208Z,99.90
2019-01-28T05:16:44.154Z,99.90
2019-01-28T05:19:14.226Z,99.90
2019-01-28T05:21:49.188Z,99.90
2019-01-28T05:24:21.168Z,99.90
2019-01-28T05:26:51.837Z,99.90
2019-01-28T05:29:21.786Z,99.90
2019-01-28T05:31:51.833Z,99.90
2019-01-28T05:34:22.012Z,99.90
2019-01-28T05:36:57.719Z,99.90
2019-01-28T05:39:27.781Z,99.90
2019-01-28T05:41:58.401Z,99.90
2019-01-28T05:44:28.325Z,99.90
2019-01-28T05:46:58.401Z,99.90
2019-01-28T05:49:28.563Z,99.90
2019-01-28T05:51:58.894Z,99.90
2019-01-28T05:54:28.884Z,99.90
2019-01-28T05:56:59.016Z,98.30
2019-01-28T05:59:31.224Z,99.60
2019-01-28T06:02:01.132Z,99.80
2019-01-28T06:04:31.017Z,99.90
2019-01-28T06:07:01.072Z,99.90
2019-01-28T06:09:30.940Z,99.90
2019-01-28T06:12:01.015Z,99.90
2019-01-28T06:14:31.089Z,99.90
2019-01-28T06:17:01.143Z,99.90
2019-01-28T06:19:31.229Z,99.90
2019-01-28T06:22:01.656Z,99.90
2019-01-28T06:24:32.048Z,99.90
2019-01-28T06:27:02.005Z,99.90
2019-01-28T06:29:32.176Z,99.90
2019-01-28T06:32:02.144Z,99.90
2019-01-28T06:34:31.929Z,99.90
2019-01-28T06:37:01.877Z,99.90
2019-01-28T06:39:31.948Z,99.90
2019-01-28T06:42:02.008Z,99.90
2019-01-28T06:44:32.113Z,99.90
2019-01-28T06:49:31.212Z,99.90
2019-01-28T06:52:01.119Z,99.90
2019-01-28T06:54:30.977Z,99.90
2019-01-28T06:57:00.744Z,99.90
2019-01-28T06:59:30.572Z,99.90
2019-01-28T07:02:00.752Z,99.90
2019-01-28T07:04:30.737Z,99.90
2019-01-28T07:09:31.992Z,99.90
2019-01-28T07:12:01.961Z,99.90
2019-01-28T07:14:31.916Z,98.60
2019-01-28T07:17:02.103Z,99.90
2019-01-28T07:19:32.160Z,99.90
2019-01-28T07:22:02.240Z,99.90
2019-01-28T07:24:32.297Z,99.90
2019-01-28T07:27:02.387Z,99.90
2019-01-28T07:32:01.477Z,98.90
2019-01-28T07:34:31.428Z,99.90
2019-01-28T07:37:01.212Z,99.90
2019-01-28T07:39:31.175Z,99.90
2019-01-28T07:42:01.136Z,99.90
2019-01-28T07:44:31.220Z,99.90
2019-01-28T07:47:01.392Z,99.90
2019-01-28T07:49:31.398Z,99.90
2019-01-28T07:52:01.456Z,99.90
2019-01-28T07:54:31.528Z,99.90
2019-01-28T07:57:01.378Z,99.90
2019-01-28T07:59:31.364Z,99.90
2019-01-28T08:02:01.629Z,99.90
2019-01-28T08:04:31.707Z,99.90
2019-01-28T08:07:01.650Z,99.90
2019-01-28T08:09:31.628Z,99.90
2019-01-28T08:12:01.799Z,99.90
2019-01-28T08:14:31.774Z,99.90
2019-01-28T08:17:01.619Z,99.90
2019-01-28T08:19:31.684Z,99.90
2019-01-28T08:22:01.744Z,99.90
2019-01-28T08:24:31.625Z,99.90
2019-01-28T08:27:02.112Z,99.90
2019-01-28T08:29:32.590Z,99.90
2019-01-28T08:32:02.733Z,99.90
2019-01-28T08:34:32.716Z,99.90
2019-01-28T08:37:02.881Z,99.90
2019-01-28T08:39:32.958Z,99.90
2019-01-28T08:42:03.114Z,99.90
2019-01-28T08:44:33.084Z,99.90
2019-01-28T08:47:02.947Z,99.90
2019-01-28T08:49:32.921Z,99.90
2019-01-28T08:52:02.972Z,99.90
2019-01-28T08:54:33.045Z,99.90
2019-01-28T08:57:03.101Z,99.90
2019-01-28T08:59:33.186Z,99.90
2019-01-28T09:02:04.111Z,99.90
2019-01-28T09:04:34.141Z,99.90
2019-01-28T09:07:03.989Z,99.90
2019-01-28T09:09:34.085Z,99.90
2019-01-28T09:12:04.130Z,99.90
2019-01-28T09:14:34.213Z,99.90
2019-01-28T09:17:04.376Z,99.90
2019-01-28T09:19:34.232Z,99.90
2019-01-28T09:22:04.260Z,99.90
2019-01-28T09:24:34.315Z,99.90
2019-01-28T09:27:04.276Z,99.90
2019-01-28T09:29:34.341Z,99.90
2019-01-28T09:32:04.429Z,99.90
2019-01-28T09:34:34.590Z,99.90
2019-01-28T09:37:04.553Z,99.90
2019-01-28T09:39:34.613Z,99.90
2019-01-28T09:42:04.591Z,99.90
2019-01-28T09:44:34.555Z,99.90
2019-01-28T09:47:04.529Z,99.90
2019-01-28T09:49:34.473Z,99.90
2019-01-28T09:52:04.564Z,99.90
2019-01-28T09:54:34.722Z,99.90
2019-01-28T09:57:04.593Z,99.90
2019-01-28T09:59:34.586Z,99.90
2019-01-28T10:02:04.800Z,99.90
2019-01-28T10:04:34.923Z,99.90
2019-01-28T10:07:05.026Z,99.90
2019-01-28T10:09:35.162Z,99.90
2019-01-28T10:12:05.366Z,99.90
2019-01-28T10:14:36.025Z,99.90
2019-01-28T10:17:06.309Z,99.90
2019-01-28T10:19:36.252Z,99.90
2019-01-28T10:22:06.329Z,99.90
2019-01-28T10:24:36.389Z,99.90
2019-01-28T10:27:06.464Z,99.90
2019-01-28T10:29:36.411Z,99.90
2019-01-28T10:32:06.408Z,99.90
2019-01-28T10:34:36.355Z,99.90
2019-01-28T10:37:07.232Z,99.90
2019-01-28T10:39:37.195Z,99.90
2019-01-28T10:42:09.844Z,99.90
2019-01-28T10:44:39.190Z,99.90
2019-01-28T10:49:38.625Z,99.90
2019-01-28T10:52:08.791Z,99.90
2019-01-28T10:54:38.921Z,99.90
2019-01-28T10:57:08.958Z,99.90
2019-01-28T10:59:39.063Z,99.90
2019-01-28T11:02:11.040Z,99.90
2019-01-28T11:04:41.748Z,99.90
2019-01-28T11:07:11.898Z,99.90
2019-01-28T11:09:41.674Z,99.90
2019-01-28T11:12:11.718Z,99.90
2019-01-28T11:14:41.667Z,99.90
2019-01-28T11:17:12.204Z,99.90
2019-01-28T11:19:45.529Z,99.90
2019-01-28T11:22:15.472Z,99.90
2019-01-28T11:24:47.534Z,99.90
2019-01-28T11:27:17.763Z,99.90
2019-01-28T11:29:47.729Z,99.90
2019-01-28T11:32:19.730Z,99.90
2019-01-28T11:34:50.077Z,99.90
2019-01-28T11:37:20.019Z,99.90
2019-01-28T11:39:50.417Z,99.90
2019-01-28T11:42:20.523Z,99.90
2019-01-28T11:44:50.267Z,99.90
2019-01-28T11:47:20.911Z,99.90
2019-01-28T11:49:50.937Z,99.90
2019-01-28T11:52:22.889Z,99.90
2019-01-28T11:54:54.772Z,99.90
2019-01-28T11:57:24.930Z,99.90
2019-01-28T11:59:54.796Z,99.90
2019-01-28T12:02:24.750Z,99.90
2019-01-28T12:04:55.329Z,99.90
2019-01-28T12:07:25.499Z,99.90
2019-01-28T12:09:55.478Z,99.90
2019-01-28T12:12:25.544Z,99.90
2019-01-28T12:14:55.597Z,99.90
2019-01-28T12:17:25.562Z,99.90
2019-01-28T12:19:55.541Z,99.90
2019-01-28T12:22:25.786Z,99.90
2019-01-28T12:24:55.873Z,99.90
2019-01-28T12:27:26.052Z,99.90
2019-01-28T12:29:56.123Z,99.90
2019-01-28T12:32:26.228Z,99.90
2019-01-28T12:34:56.307Z,99.90
2019-01-28T12:37:26.453Z,99.90
2019-01-28T12:39:56.445Z,99.90
2019-01-28T12:42:26.725Z,99.90
2019-01-28T12:44:56.669Z,99.90
2019-01-28T12:47:26.757Z,99.90
2019-01-28T12:49:56.806Z,99.90
2019-01-28T12:52:27.164Z,99.90
2019-01-28T12:54:57.863Z,99.90
2019-01-28T12:57:27.676Z,99.90
2019-01-28T12:59:58.752Z,99.90
2019-01-28T13:02:29.494Z,99.90
2019-01-28T13:05:00.024Z,99.90
2019-01-28T13:07:31.569Z,99.90
2019-01-28T13:10:01.744Z,99.90
2019-01-28T13:12:31.932Z,99.90
2019-01-28T13:15:02.432Z,99.90
2019-01-28T13:17:33.280Z,99.90
2019-01-28T13:20:03.459Z,99.90
2019-01-28T13:22:33.636Z,99.90
2019-01-28T13:25:03.797Z,99.90
2019-01-28T13:27:33.977Z,99.90
2019-01-28T13:30:03.784Z,99.90
2019-01-28T13:32:33.702Z,99.90
2019-01-28T13:35:03.570Z,99.90
2019-01-28T13:37:33.529Z,99.90
2019-01-28T13:40:04.882Z,99.90
2019-01-28T13:42:35.125Z,99.90
2019-01-28T13:45:05.282Z,99.90
2019-01-28T13:47:35.344Z,99.90
2019-01-28T13:50:06.933Z,99.90
2019-01-28T13:52:37.305Z,99.90
2019-01-28T13:55:07.764Z,99.90
2019-01-28T13:57:37.753Z,99.90
2019-01-28T14:00:12.553Z,99.90
2019-01-28T14:02:42.601Z,99.90
2019-01-28T14:05:12.857Z,99.90
2019-01-28T14:07:42.660Z,99.90
2019-01-28T14:10:13.348Z,99.90
2019-01-28T14:12:43.530Z,99.90
2019-01-28T14:15:22.961Z,99.90
2019-01-28T14:17:53.036Z,99.90
2019-01-28T14:20:23.262Z,99.90
2019-01-28T14:22:53.416Z,99.90
2019-01-28T14:25:23.794Z,99.90
2019-01-28T14:27:53.981Z,99.90
2019-01-28T14:30:36.228Z,99.90
2019-01-28T14:33:06.602Z,99.90
2019-01-28T14:35:37.968Z,99.90
2019-01-28T14:38:09.194Z,99.90
2019-01-28T14:40:40.178Z,99.60
2019-01-28T14:43:10.437Z,99.90
2019-01-28T14:45:40.419Z,99.90
2019-01-28T14:48:11.982Z,99.90
2019-01-28T14:50:42.086Z,99.80
2019-01-28T14:53:12.356Z,99.90
2019-01-28T14:55:42.337Z,99.90
2019-01-28T14:58:16.559Z,99.90
2019-01-28T15:00:46.767Z,96.70
2019-01-28T15:03:17.037Z,99.90
2019-01-28T15:05:47.405Z,96.20
2019-01-28T15:08:17.793Z,98.40
2019-01-28T15:10:48.385Z,99.30
2019-01-28T15:13:18.605Z,98.40
2019-01-28T15:15:48.929Z,99.00
2019-01-28T15:18:19.214Z,99.10
2019-01-28T15:20:49.476Z,97.90
2019-01-28T15:23:19.621Z,97.30
2019-01-28T15:25:49.660Z,96.90
2019-01-28T15:28:22.673Z,96.90
2019-01-28T15:30:53.119Z,97.20
2019-01-28T15:33:24.040Z,98.00
2019-01-28T15:35:56.384Z,97.10
2019-01-28T15:38:26.680Z,99.90
2019-01-28T15:40:57.362Z,96.10
2019-01-28T15:43:27.676Z,96.50
2019-01-28T15:45:58.034Z,97.30
2019-01-28T15:48:28.181Z,96.70
2019-01-28T15:50:58.252Z,98.80
2019-01-28T15:53:28.389Z,95.70
2019-01-28T15:55:58.852Z,95.90
2019-01-28T15:58:29.928Z,96.60
2019-01-28T16:01:00.165Z,95.80
2019-01-28T16:03:30.339Z,94.80
2019-01-28T16:06:00.505Z,99.50
2019-01-28T16:08:30.640Z,95.60
2019-01-28T16:11:00.889Z,96.50
2019-01-28T16:13:31.006Z,98.00
2019-01-28T16:16:01.181Z,95.70
2019-01-28T16:18:34.393Z,99.10
2019-01-28T16:21:03.948Z,94.00
2019-01-28T16:23:34.036Z,95.80
2019-01-28T16:26:04.647Z,99.00
2019-01-28T16:28:34.914Z,93.30
2019-01-28T16:31:05.074Z,99.40
2019-01-28T16:33:36.099Z,93.20
2019-01-28T16:36:07.660Z,94.40
2019-01-28T16:38:38.073Z,95.80
2019-01-28T16:41:08.419Z,95.90
2019-01-28T16:43:38.863Z,96.60
2019-01-28T16:46:09.136Z,94.60
2019-01-28T16:48:39.970Z,95.60
2019-01-28T16:51:10.757Z,96.10
2019-01-28T16:53:40.905Z,93.30
2019-01-28T16:56:11.023Z,94.10
2019-01-28T16:58:41.486Z,94.10
2019-01-28T17:01:12.241Z,98.50
2019-01-28T17:03:44.307Z,94.00
2019-01-28T17:06:14.922Z,95.40
2019-01-28T17:08:45.894Z,95.00
2019-01-28T17:11:16.601Z,97.20
2019-01-28T17:13:47.051Z,97.30
2019-01-28T17:16:17.474Z,94.60
2019-01-28T17:18:47.941Z,95.60
2019-01-28T17:21:18.392Z,96.40
2019-01-28T17:23:49.224Z,96.00
2019-01-28T17:26:20.068Z,99.40
2019-01-28T17:28:50.607Z,95.00
2019-01-28T17:31:21.565Z,93.90
2019-01-28T17:43:54.439Z,96.20
2019-01-28T17:46:24.742Z,93.10
2019-01-28T17:48:55.496Z,92.90
2019-01-28T17:51:25.675Z,92.30
2019-01-28T17:53:56.005Z,89.20
2019-01-28T17:56:26.656Z,91.00
2019-01-28T17:58:57.147Z,97.40
2019-01-28T18:01:27.554Z,93.00
2019-01-28T18:03:58.125Z,97.70
2019-01-28T18:06:28.308Z,95.60
2019-01-28T18:08:58.460Z,97.30
2019-01-28T18:11:28.467Z,93.60
2019-01-28T18:13:59.045Z,94.90
2019-01-28T18:16:29.681Z,97.60
2019-01-28T18:19:00.269Z,95.30
2019-01-28T18:21:30.793Z,99.50
2019-01-28T18:24:01.577Z,97.70
2019-01-28T18:26:33.420Z,95.50
2019-01-28T18:29:04.992Z,99.10
2019-01-28T18:31:36.831Z,97.70
2019-01-28T18:34:07.815Z,96.00
2019-01-28T18:36:39.538Z,97.30
2019-01-28T18:39:12.977Z,95.30
2019-01-28T18:41:44.120Z,97.80
2019-01-28T18:44:14.888Z,97.50
2019-01-28T18:46:45.920Z,96.30
2019-01-28T18:49:17.215Z,93.40
2019-01-28T18:51:48.091Z,94.10
2019-01-28T18:54:19.278Z,93.90
2019-01-28T18:56:50.034Z,94.40
2019-01-28T18:59:21.076Z,95.00
2019-01-28T19:01:54.602Z,96.00
2019-01-28T19:04:27.878Z,95.90
2019-01-28T19:07:15.808Z,92.20
2019-01-28T19:09:52.761Z,95.30
2019-01-28T19:12:46.341Z,94.80
2019-01-28T19:15:29.929Z,93.40
2019-01-28T19:18:18.468Z,97.30
2019-01-28T19:20:56.605Z,94.50
2019-01-28T19:23:27.832Z,94.70
2019-01-28T19:25:58.605Z,95.90
2019-01-28T19:28:31.544Z,98.90
2019-01-28T19:31:02.905Z,95.30
2019-01-28T19:33:34.116Z,97.80
2019-01-28T19:36:06.717Z,99.90
2019-01-28T19:41:08.692Z,97.60
2019-01-28T19:43:41.176Z,96.50
2019-01-28T19:46:14.121Z,95.70
2019-01-28T19:48:47.028Z,99.30
2019-01-28T19:51:19.056Z,96.60
2019-01-28T19:53:53.416Z,95.50
2019-01-28T19:56:25.788Z,97.30
2019-01-28T19:59:02.117Z,98.10
2019-01-28T20:01:36.471Z,98.00
2019-01-28T20:04:09.664Z,95.30
2019-01-28T20:06:43.369Z,97.50
2019-01-28T20:09:16.559Z,96.20
2019-01-28T20:11:49.778Z,96.00
2019-01-28T20:14:21.812Z,94.80
2019-01-28T20:16:53.399Z,94.40
2019-01-28T20:19:24.945Z,94.30
2019-01-28T20:21:57.292Z,93.70
2019-01-28T20:24:28.930Z,95.80
2019-01-28T20:27:00.255Z,96.50
2019-01-28T20:29:31.549Z,94.30
2019-01-28T20:32:02.723Z,97.40
2019-01-28T20:34:34.673Z,96.10
2019-01-28T20:37:06.412Z,95.30
2019-01-28T20:39:37.882Z,97.10
2019-01-28T20:42:09.413Z,96.50
2019-01-28T20:44:40.816Z,93.70
2019-01-28T20:47:12.046Z,95.00
2019-01-28T20:49:42.835Z,93.80
2019-01-28T20:52:14.089Z,95.70
2019-01-28T20:54:45.523Z,94.20
2019-01-28T20:57:16.645Z,92.60
2019-01-28T20:59:47.962Z,93.40
2019-01-28T21:02:19.591Z,93.60
2019-01-28T21:04:50.677Z,93.80
2019-01-28T21:07:22.454Z,93.40
2019-01-28T21:09:53.814Z,93.10
2019-01-28T21:12:24.956Z,94.70
2019-01-28T21:14:56.427Z,96.40
2019-01-28T21:17:27.980Z,95.80
2019-01-28T21:19:58.846Z,95.00
2019-01-28T21:22:30.605Z,93.50
2019-01-28T21:25:01.639Z,92.50
2019-01-28T21:27:32.807Z,92.70
2019-01-28T21:30:03.777Z,92.10
2019-01-28T21:32:34.620Z,92.70
2019-01-28T21:35:06.740Z,93.80
2019-01-28T21:37:42.789Z,93.40
2019-01-28T21:40:13.951Z,92.30
2019-01-28T21:42:44.171Z,91.60
2019-01-28T21:45:15.895Z,91.80
2019-01-28T21:47:57.105Z,91.90
2019-01-28T21:50:28.066Z,92.70
2019-01-28T21:52:58.650Z,93.40
2019-01-28T21:55:28.951Z,92.30
2019-01-28T21:57:59.387Z,91.40
2019-01-28T22:00:30.276Z,92.50
2019-01-28T22:03:00.667Z,93.10
2019-01-28T22:05:32.439Z,93.20
2019-01-28T22:08:07.633Z,92.50
2019-01-28T22:10:37.420Z,91.80
2019-01-28T22:13:07.612Z,91.50
2019-01-28T22:15:37.844Z,90.10
2019-01-28T22:18:07.691Z,91.40
2019-01-28T22:20:37.890Z,92.30
2019-01-28T22:23:07.733Z,91.90
2019-01-28T22:25:37.817Z,92.70
2019-01-28T22:28:07.775Z,91.90
2019-01-28T22:30:37.650Z,93.40
2019-01-28T22:33:09.026Z,93.70
2019-01-28T22:35:39.008Z,92.30
2019-01-28T22:38:08.961Z,93.10
2019-01-28T22:40:38.941Z,93.10
2019-01-28T22:43:09.101Z,94.90
2019-01-28T22:45:39.177Z,98.40
2019-01-28T22:48:09.250Z,97.90
2019-01-28T22:50:39.418Z,97.30
2019-01-28T22:53:09.470Z,96.10
2019-01-28T22:55:39.357Z,97.10
2019-01-28T22:58:09.425Z,98.70
2019-01-28T23:00:52.482Z,97.00
2019-01-28T23:03:24.514Z,95.50
2019-01-28T23:05:54.665Z,96.50
2019-01-28T23:08:24.729Z,98.50
2019-01-28T23:10:54.797Z,97.30
2019-01-28T23:13:25.130Z,94.60
2019-01-28T23:15:55.249Z,94.50
2019-01-28T23:18:26.080Z,96.40
2019-01-28T23:20:56.137Z,96.90
2019-01-28T23:23:26.835Z,96.30
2019-01-28T23:25:57.164Z,95.60
2019-01-28T23:28:27.180Z,95.70
2019-01-28T23:30:57.225Z,97.30
2019-01-28T23:38:25.601Z,97.30
2019-01-28T23:40:55.759Z,99.60
2019-01-28T23:43:25.824Z,99.90
2019-01-28T23:45:55.992Z,98.80
2019-01-28T23:48:25.974Z,96.00
2019-01-28T23:50:56.137Z,97.20
2019-01-28T23:53:26.419Z,96.00
2019-01-28T23:55:57.562Z,95.00
2019-01-28T23:58:27.488Z,95.20
